sensor_id;sensor_type;location;lat;lon;timestamp;pressure;altitude;pressure_sealevel;temperature;humidity
44144;BME280;43510;51.920;4.492;2023-02-22T05:24:33;66629.28;;;6.94;100.00
44144;BME280;43510;51.920;4.492;2023-02-22T07:07:50;66683.97;;;7.39;100.00
44144;BME280;43510;51.920;4.492;2023-02-22T07:10:21;66690.28;;;7.47;100.00
44144;BME280;43510;51.920;4.492;2023-02-22T07:12:48;66679.31;;;7.39;100.00
44144;BME280;43510;51.920;4.492;2023-02-22T07:15:17;66671.72;;;7.35;100.00
44144;BME280;43510;51.920;4.492;2023-02-22T07:17:43;66665.97;;;7.27;100.00
44144;BME280;43510;51.920;4.492;2023-02-22T07:20:08;66679.53;;;7.35;100.00
44144;BME280;43510;51.920;4.492;2023-02-22T07:22:37;66681.22;;;7.36;100.00
44144;BME280;43510;51.920;4.492;2023-02-22T07:25:07;66673.75;;;7.34;100.00
44144;BME280;43510;51.920;4.492;2023-02-22T07:27:40;66685.44;;;7.45;100.00
44144;BME280;43510;51.920;4.492;2023-02-22T07:30:07;66692.13;;;7.51;100.00
44144;BME280;43510;51.920;4.492;2023-02-22T07:32:35;66691.19;;;7.53;100.00
44144;BME280;43510;51.920;4.492;2023-02-22T07:35:00;66702.91;;;7.56;100.00
44144;BME280;43510;51.920;4.492;2023-02-22T07:37:27;66701.78;;;7.55;100.00
44144;BME280;43510;51.920;4.492;2023-02-22T07:39:54;66702.13;;;7.60;100.00
44144;BME280;43510;51.920;4.492;2023-02-22T07:42:20;66699.91;;;7.58;100.00
44144;BME280;43510;51.920;4.492;2023-02-22T07:44:45;66699.19;;;7.55;100.00
44144;BME280;43510;51.920;4.492;2023-02-22T07:47:11;66702.13;;;7.60;100.00
44144;BME280;43510;51.920;4.492;2023-02-22T07:49:37;66706.59;;;7.64;100.00
44144;BME280;43510;51.920;4.492;2023-02-22T07:52:02;66697.69;;;7.56;100.00
44144;BME280;43510;51.920;4.492;2023-02-22T07:54:30;66710.31;;;7.65;100.00
44144;BME280;43510;51.920;4.492;2023-02-22T07:56:55;66707.31;;;7.67;100.00
44144;BME280;43510;51.920;4.492;2023-02-22T07:59:21;66718.25;;;7.75;100.00
44144;BME280;43510;51.920;4.492;2023-02-22T08:01:48;66718.47;;;7.70;100.00
44144;BME280;43510;51.920;4.492;2023-02-22T08:04:15;66727.53;;;7.81;100.00
44144;BME280;43510;51.920;4.492;2023-02-22T08:09:16;66731.06;;;7.87;100.00
44144;BME280;43510;51.920;4.492;2023-02-22T08:11:42;66738.28;;;7.93;100.00
44144;BME280;43510;51.920;4.492;2023-02-22T08:14:07;66743.69;;;7.96;100.00
44144;BME280;43510;51.920;4.492;2023-02-22T08:16:32;66734.41;;;7.90;100.00
44144;BME280;43510;51.920;4.492;2023-02-22T08:18:58;66735.69;;;7.93;100.00
44144;BME280;43510;51.920;4.492;2023-02-22T08:21:23;66735.91;;;7.89;100.00
44144;BME280;43510;51.920;4.492;2023-02-22T08:23:52;66747.56;;;7.99;100.00
44144;BME280;43510;51.920;4.492;2023-02-22T08:26:18;66745.94;;;7.98;100.00
44144;BME280;43510;51.920;4.492;2023-02-22T08:49:26;66792.88;;;8.43;100.00
44144;BME280;43510;51.920;4.492;2023-02-22T15:40:36;67200.91;;;12.11;99.69
44144;BME280;43510;51.920;4.492;2023-02-22T15:43:18;67201.66;;;12.14;100.00
44144;BME280;43510;51.920;4.492;2023-02-22T15:45:48;67182.66;;;11.97;100.00
44144;BME280;43510;51.920;4.492;2023-02-22T18:51:08;67020.78;;;10.50;100.00
44144;BME280;43510;51.920;4.492;2023-02-22T18:53:36;66995.13;;;10.27;100.00
44144;BME280;43510;51.920;4.492;2023-02-22T18:56:05;66985.13;;;10.17;100.00
44144;BME280;43510;51.920;4.492;2023-02-22T18:58:31;66977.84;;;10.11;100.00
44144;BME280;43510;51.920;4.492;2023-02-22T19:01:01;66974.47;;;10.08;100.00
44144;BME280;43510;51.920;4.492;2023-02-22T19:03:27;66976.38;;;10.05;100.00
44144;BME280;43510;51.920;4.492;2023-02-22T19:05:59;66965.03;;;9.99;100.00
44144;BME280;43510;51.920;4.492;2023-02-22T19:31:52;66963.56;;;9.93;100.00
44144;BME280;43510;51.920;4.492;2023-02-22T19:34:19;66960.94;;;9.93;100.00
44144;BME280;43510;51.920;4.492;2023-02-22T19:36:46;66949.97;;;9.86;100.00
44144;BME280;43510;51.920;4.492;2023-02-22T19:39:15;66941.59;;;9.78;100.00
44144;BME280;43510;51.920;4.492;2023-02-22T19:41:43;66935.47;;;9.72;100.00
44144;BME280;43510;51.920;4.492;2023-02-22T19:44:09;66918.19;;;9.57;100.00
44144;BME280;43510;51.920;4.492;2023-02-22T19:46:35;66933.81;;;9.71;100.00
44144;BME280;43510;51.920;4.492;2023-02-22T19:49:02;66923.59;;;9.59;100.00
44144;BME280;43510;51.920;4.492;2023-02-22T19:51:28;66933.25;;;9.70;100.00
44144;BME280;43510;51.920;4.492;2023-02-22T19:53:59;66942.38;;;9.74;100.00
44144;BME280;43510;51.920;4.492;2023-02-22T19:56:27;66950.19;;;9.81;100.00
44144;BME280;43510;51.920;4.492;2023-02-22T19:59:01;66939.38;;;9.76;100.00
44144;BME280;43510;51.920;4.492;2023-02-22T20:01:35;66923.38;;;9.64;100.00
44144;BME280;43510;51.920;4.492;2023-02-22T20:04:04;66939.38;;;9.76;100.00
44144;BME280;43510;51.920;4.492;2023-02-22T20:06:43;66944.94;;;9.81;100.00
44144;BME280;43510;51.920;4.492;2023-02-22T20:09:14;66956.09;;;9.91;100.00
44144;BME280;43510;51.920;4.492;2023-02-22T20:11:46;66957.22;;;9.92;100.00
44144;BME280;43510;51.920;4.492;2023-02-22T20:14:19;66999.81;;;10.26;100.00
44144;BME280;43510;51.920;4.492;2023-02-22T20:16:52;66967.41;;;10.04;100.00
44144;BME280;43510;51.920;4.492;2023-02-22T20:19:19;66963.34;;;9.98;100.00
44144;BME280;43510;51.920;4.492;2023-02-22T20:21:46;66966.53;;;9.98;100.00
44144;BME280;43510;51.920;4.492;2023-02-22T20:24:14;66949.41;;;9.85;100.00
44144;BME280;43510;51.920;4.492;2023-02-22T20:26:45;66966.53;;;9.98;100.00
44144;BME280;43510;51.920;4.492;2023-02-22T20:29:11;66963.72;;;9.96;100.00
44144;BME280;43510;51.920;4.492;2023-02-22T20:31:40;66973.78;;;10.05;100.00
44144;BME280;43510;51.920;4.492;2023-02-22T20:34:07;66951.78;;;9.90;100.00
44144;BME280;43510;51.920;4.492;2023-02-22T20:36:37;66970.22;;;10.06;100.00
44144;BME280;43510;51.920;4.492;2023-02-22T20:39:04;66969.66;;;10.06;100.00
44144;BME280;43510;51.920;4.492;2023-02-22T20:41:45;66966.69;;;10.01;100.00
44144;BME280;43510;51.920;4.492;2023-02-22T20:44:16;66967.78;;;10.02;100.00
44144;BME280;43510;51.920;4.492;2023-02-22T20:46:42;66954.97;;;9.90;100.00
44144;BME280;43510;51.920;4.492;2023-02-22T20:49:10;66964.28;;;9.96;100.00
44144;BME280;43510;51.920;4.492;2023-02-22T20:51:37;66946.06;;;9.82;100.00
44144;BME280;43510;51.920;4.492;2023-02-22T20:54:04;66967.63;;;9.99;100.00
44144;BME280;43510;51.920;4.492;2023-02-22T20:56:40;66967.63;;;9.99;100.00
44144;BME280;43510;51.920;4.492;2023-02-22T20:59:08;66970.03;;;10.04;100.00
44144;BME280;43510;51.920;4.492;2023-02-22T21:01:34;66965.25;;;9.95;100.00
44144;BME280;43510;51.920;4.492;2023-02-22T21:04:05;66964.28;;;9.96;100.00
44144;BME280;43510;51.920;4.492;2023-02-22T21:06:32;66972.09;;;10.03;100.00
44144;BME280;43510;51.920;4.492;2023-02-22T21:09:00;66975.59;;;10.09;100.00
44144;BME280;43510;51.920;4.492;2023-02-22T21:11:29;66965.03;;;9.99;100.00
44144;BME280;43510;51.920;4.492;2023-02-22T21:13:57;66973.94;;;10.07;100.00
44144;BME280;43510;51.920;4.492;2023-02-22T21:16:26;66973.59;;;10.02;100.00
44144;BME280;43510;51.920;4.492;2023-02-22T21:18:53;66986.78;;;10.19;100.00
44144;BME280;43510;51.920;4.492;2023-02-22T21:21:20;66990.13;;;10.22;100.00
44144;BME280;43510;51.920;4.492;2023-02-22T21:23:48;66986.63;;;10.16;100.00
44144;BME280;43510;51.920;4.492;2023-02-22T21:26:18;66987.31;;;10.19;100.00
44144;BME280;43510;51.920;4.492;2023-02-22T21:28:44;67002.56;;;10.36;100.00
44144;BME280;43510;51.920;4.492;2023-02-22T21:31:11;67004.44;;;10.33;100.00
44144;BME280;43510;51.920;4.492;2023-02-22T21:33:38;66996.44;;;10.30;100.00
44144;BME280;43510;51.920;4.492;2023-02-22T21:36:07;67008.53;;;10.39;100.00
44144;BME280;43510;51.920;4.492;2023-02-22T21:38:41;66991.63;;;10.21;100.00
44144;BME280;43510;51.920;4.492;2023-02-22T21:41:27;67034.19;;;10.62;100.00
44144;BME280;43510;51.920;4.492;2023-02-22T21:43:54;67025.81;;;10.54;100.00
44144;BME280;43510;51.920;4.492;2023-02-22T21:46:23;67016.50;;;10.48;100.00
44144;BME280;43510;51.920;4.492;2023-02-22T23:03:51;67033.47;;;10.59;100.00
44144;BME280;43510;51.920;4.492;2023-02-22T23:06:21;67030.84;;;10.59;100.00
44144;BME280;43510;51.920;4.492;2023-02-22T23:08:53;67034.75;;;10.62;100.00
44144;BME280;43510;51.920;4.492;2023-02-22T23:11:28;67034.97;;;10.58;100.00
44144;BME280;43510;51.920;4.492;2023-02-22T23:13:54;67037.75;;;10.60;100.00
44144;BME280;43510;51.920;4.492;2023-02-22T23:16:21;67034.19;;;10.62;100.00
44144;BME280;43510;51.920;4.492;2023-02-22T23:18:47;67031.97;;;10.60;100.00
44144;BME280;43510;51.920;4.492;2023-02-22T23:21:16;67032.69;;;10.63;100.00
44144;BME280;43510;51.920;4.492;2023-02-22T23:23:41;67026.94;;;10.55;100.00
44144;BME280;43510;51.920;4.492;2023-02-22T23:26:09;67041.28;;;10.66;100.00
44144;BME280;43510;51.920;4.492;2023-02-22T23:31:14;67037.53;;;10.65;100.00
44144;BME280;43510;51.920;4.492;2023-02-22T23:33:42;67027.09;;;10.58;100.00
44144;BME280;43510;51.920;4.492;2023-02-22T23:36:10;67030.84;;;10.59;100.00
44144;BME280;43510;51.920;4.492;2023-02-22T23:38:37;67035.34;;;10.56;100.00
44144;BME280;43510;51.920;4.492;2023-02-22T23:41:06;67021.53;;;10.53;100.00
44144;BME280;43510;51.920;4.492;2023-02-22T23:43:35;67022.28;;;10.49;100.00
44144;BME280;43510;51.920;4.492;2023-02-22T23:46:08;67015.22;;;10.45;100.00
44144;BME280;43510;51.920;4.492;2023-02-22T23:48:44;67002.22;;;10.31;100.00
44144;BME280;43510;51.920;4.492;2023-02-22T23:51:15;67003.34;;;10.32;100.00
44144;BME280;43510;51.920;4.492;2023-02-22T23:53:42;66992.94;;;10.25;100.00
44144;BME280;43510;51.920;4.492;2023-02-22T23:56:15;66995.13;;;10.27;100.00
44144;BME280;43510;51.920;4.492;2023-02-22T23:58:41;66983.41;;;10.16;100.00
